Sv.knyaz Vladimir — UBKI2 — position and weather

sailwx.info

Track history (hours):
 
Tides and Currents Weather Stations Pressure Air Temp Water Temp Dewpoint Dewpoint Depression Visibility Wind Speed Wind Dir Waves Ship Positions

Sv.knyaz Vladimir

Last reported at 2015-Feb-28 10:13 UTC. Time now 2015-Mar-02 23:14 UTC.
Position N 44°08' E 035°01'.

Length 128 m; draft 3.1 m.

Type: Cargo ship. MMSI: 273350360.

Date/timePositionNaut miles runAvg speedWind from/ knotsBaromVisibWave heightAir tempDewpointWater temp
2015-Feb-28 10:13N 44°08' E 035°01'6 8.3
2015-Feb-28 09:29N 44°04' E 034°54'16 8.1
2015-Feb-28 07:33N 43°55' E 034°37'8 8.0
2015-Feb-28 06:33N 43°50' E 034°28'300 7.9
2015-Feb-26 16:32N 40°56' E 028°57'9 8.2
2015-Feb-26 15:26N 40°50' E 029°07'6 7.1
2015-Feb-26 14:33N 40°51' E 029°15'0 0.1
2015-Feb-26 13:30N 40°51' E 029°15'0 0.0
2015-Feb-26 12:24N 40°51' E 029°15'1 1.5
2015-Feb-26 11:32N 40°51' E 029°17'1 0.0
2015-Feb-25 11:29N 40°51' E 029°17'0 0.0
2015-Feb-25 10:29N 40°51' E 029°17'0 0.0
2015-Feb-25 09:23N 40°51' E 029°17'0 0.0
2015-Feb-25 08:26N 40°51' E 029°17'0 0.0
2015-Feb-25 07:27N 40°51' E 029°17'0 0.0
2015-Feb-25 06:32N 40°51' E 029°17'0 0.0
2015-Feb-25 05:22N 40°51' E 029°17'0 0.0
2015-Feb-25 04:16N 40°51' E 029°17'0 0.0
2015-Feb-25 03:28N 40°51' E 029°17'0 0.0
2015-Feb-25 02:28N 40°51' E 029°17'0 0.0
2015-Feb-25 01:16N 40°51' E 029°17'0 0.0
2015-Feb-24 23:28N 40°51' E 029°17'0 0.0
2015-Feb-24 22:28N 40°51' E 029°17'0 0.0
2015-Feb-24 21:22N 40°51' E 029°17'0 0.0
2015-Feb-24 20:28N 40°51' E 029°17'0 0.0
2015-Feb-24 19:28N 40°51' E 029°17'0 0.0
2015-Feb-24 18:28N 40°51' E 029°17'0 0.0
2015-Feb-24 17:28N 40°51' E 029°17'0 0.0
2015-Feb-24 16:28N 40°51' E 029°17'0 0.0
2015-Feb-24 15:28N 40°51' E 029°17'0 0.0
2015-Feb-24 14:28N 40°51' E 029°17'0 0.0
2015-Feb-24 13:32N 40°51' E 029°17'0 0.0
2015-Feb-24 12:32N 40°51' E 029°17'0 0.0
2015-Feb-24 11:31N 40°51' E 029°17'0 0.0
2015-Feb-24 10:32N 40°51' E 029°17'2 1.9
2015-Feb-24 09:33N 40°51' E 029°15'0 0.2
2015-Feb-24 08:28N 40°51' E 029°15'0 0.0
2015-Feb-24 07:32N 40°51' E 029°15'0 0.0
2015-Feb-24 06:30N 40°51' E 029°15'0 0.1
2015-Feb-24 05:30N 40°51' E 029°15'0 0.0
2015-Feb-24 04:30N 40°51' E 029°15'0 0.0
2015-Feb-24 03:30N 40°51' E 029°15'0 0.0
2015-Feb-24 02:24N 40°51' E 029°15'0 0.0
2015-Feb-24 01:30N 40°51' E 029°15'0 0.0
2015-Feb-24 00:30N 40°51' E 029°15'0 0.0
2015-Feb-23 23:30N 40°51' E 029°15'0 0.0
2015-Feb-23 22:30N 40°51' E 029°15'0 0.0
2015-Feb-23 21:24N 40°51' E 029°15'0 0.0
2015-Feb-23 20:30N 40°51' E 029°15'0 0.0
2015-Feb-23 19:30N 40°51' E 029°15'0 0.0
2015-Feb-23 18:30N 40°51' E 029°15'0 0.0
2015-Feb-23 17:30N 40°51' E 029°15'0 0.0
2015-Feb-23 16:30N 40°51' E 029°15'0 0.0
2015-Feb-23 15:18N 40°51' E 029°15'0 0.0
2015-Feb-23 14:30N 40°51' E 029°15'0 0.0
2015-Feb-23 13:30N 40°51' E 029°15'0 0.0
2015-Feb-23 12:24N 40°51' E 029°15'0 0.0
2015-Feb-23 11:30N 40°51' E 029°15'0 0.0
2015-Feb-23 10:31N 40°51' E 029°15'0 0.1
2015-Feb-23 09:31N 40°51' E 029°15'0 0.0
2015-Feb-23 08:32N 40°51' E 029°15'0 0.0
2015-Feb-23 07:32N 40°51' E 029°15'  
2015-Feb-20 10:05N 40°45' E 029°28'0 0.0
2015-Feb-20 09:29N 40°45' E 029°28'0 0.0
2015-Feb-20 08:05N 40°45' E 029°28'0 0.0
2015-Feb-20 03:17N 40°45' E 029°28'0 0.0
2015-Feb-19 17:04N 40°45' E 029°28'0 0.0
2015-Feb-19 16:28N 40°45' E 029°28'0 0.0
2015-Feb-19 15:07N 40°45' E 029°28'0 0.0
2015-Feb-19 14:25N 40°45' E 029°28'0 0.0
2015-Feb-19 10:25N 40°45' E 029°28'0 0.0
2015-Feb-19 01:05N 40°45' E 029°28'0 0.0
2015-Feb-18 20:23N 40°45' E 029°28'0 0.0
2015-Feb-18 19:23N 40°45' E 029°28'0 0.0
2015-Feb-18 17:29N 40°45' E 029°28'0 0.0
2015-Feb-18 16:11N 40°45' E 029°28'0 0.0
2015-Feb-18 15:29N 40°45' E 029°28'0 0.0
2015-Feb-18 12:08N 40°45' E 029°28'0 0.0
2015-Feb-18 11:32N 40°45' E 029°28'  
Track history (hours):
 
Tides and Currents Weather Stations Pressure Air Temp Water Temp Dewpoint Dewpoint Depression Visibility Wind Speed Wind Dir Waves Ship Positions

Sv.knyaz Vladimir

Last reported at 2015-Feb-28 10:13 UTC. Time now 2015-Mar-02 23:14 UTC.
Position N 44°08' E 035°01'.

Length 128 m; draft 3.1 m.

Type: Cargo ship. MMSI: 273350360.

Date/timePositionNaut miles runAvg speedWind from/ knotsBaromVisibWave heightAir tempDewpointWater temp
2015-Feb-28 10:13N 44°08' E 035°01'6 8.3
2015-Feb-28 09:29N 44°04' E 034°54'16 8.1
2015-Feb-28 07:33N 43°55' E 034°37'8 8.0
2015-Feb-28 06:33N 43°50' E 034°28'300 7.9
2015-Feb-26 16:32N 40°56' E 028°57'9 8.2
2015-Feb-26 15:26N 40°50' E 029°07'6 7.1
2015-Feb-26 14:33N 40°51' E 029°15'0 0.1
2015-Feb-26 13:30N 40°51' E 029°15'0 0.0
2015-Feb-26 12:24N 40°51' E 029°15'1 1.5
2015-Feb-26 11:32N 40°51' E 029°17'1 0.0
2015-Feb-25 11:29N 40°51' E 029°17'0 0.0
2015-Feb-25 10:29N 40°51' E 029°17'0 0.0
2015-Feb-25 09:23N 40°51' E 029°17'0 0.0
2015-Feb-25 08:26N 40°51' E 029°17'0 0.0
2015-Feb-25 07:27N 40°51' E 029°17'0 0.0
2015-Feb-25 06:32N 40°51' E 029°17'0 0.0
2015-Feb-25 05:22N 40°51' E 029°17'0 0.0
2015-Feb-25 04:16N 40°51' E 029°17'0 0.0
2015-Feb-25 03:28N 40°51' E 029°17'0 0.0
2015-Feb-25 02:28N 40°51' E 029°17'0 0.0
2015-Feb-25 01:16N 40°51' E 029°17'0 0.0
2015-Feb-24 23:28N 40°51' E 029°17'0 0.0
2015-Feb-24 22:28N 40°51' E 029°17'0 0.0
2015-Feb-24 21:22N 40°51' E 029°17'0 0.0
2015-Feb-24 20:28N 40°51' E 029°17'0 0.0
2015-Feb-24 19:28N 40°51' E 029°17'0 0.0
2015-Feb-24 18:28N 40°51' E 029°17'0 0.0
2015-Feb-24 17:28N 40°51' E 029°17'0 0.0
2015-Feb-24 16:28N 40°51' E 029°17'0 0.0
2015-Feb-24 15:28N 40°51' E 029°17'0 0.0
2015-Feb-24 14:28N 40°51' E 029°17'0 0.0
2015-Feb-24 13:32N 40°51' E 029°17'0 0.0
2015-Feb-24 12:32N 40°51' E 029°17'0 0.0
2015-Feb-24 11:31N 40°51' E 029°17'0 0.0
2015-Feb-24 10:32N 40°51' E 029°17'2 1.9
2015-Feb-24 09:33N 40°51' E 029°15'0 0.2
2015-Feb-24 08:28N 40°51' E 029°15'0 0.0
2015-Feb-24 07:32N 40°51' E 029°15'0 0.0
2015-Feb-24 06:30N 40°51' E 029°15'0 0.1
2015-Feb-24 05:30N 40°51' E 029°15'0 0.0
2015-Feb-24 04:30N 40°51' E 029°15'0 0.0
2015-Feb-24 03:30N 40°51' E 029°15'0 0.0
2015-Feb-24 02:24N 40°51' E 029°15'0 0.0
2015-Feb-24 01:30N 40°51' E 029°15'0 0.0
2015-Feb-24 00:30N 40°51' E 029°15'0 0.0
2015-Feb-23 23:30N 40°51' E 029°15'0 0.0
2015-Feb-23 22:30N 40°51' E 029°15'0 0.0
2015-Feb-23 21:24N 40°51' E 029°15'0 0.0
2015-Feb-23 20:30N 40°51' E 029°15'0 0.0
2015-Feb-23 19:30N 40°51' E 029°15'0 0.0
2015-Feb-23 18:30N 40°51' E 029°15'0 0.0
2015-Feb-23 17:30N 40°51' E 029°15'0 0.0
2015-Feb-23 16:30N 40°51' E 029°15'0 0.0
2015-Feb-23 15:18N 40°51' E 029°15'0 0.0
2015-Feb-23 14:30N 40°51' E 029°15'0 0.0
2015-Feb-23 13:30N 40°51' E 029°15'0 0.0
2015-Feb-23 12:24N 40°51' E 029°15'0 0.0
2015-Feb-23 11:30N 40°51' E 029°15'0 0.0
2015-Feb-23 10:31N 40°51' E 029°15'0 0.1
2015-Feb-23 09:31N 40°51' E 029°15'0 0.0
2015-Feb-23 08:32N 40°51' E 029°15'0 0.0
2015-Feb-23 07:32N 40°51' E 029°15'  
2015-Feb-20 10:05N 40°45' E 029°28'0 0.0
2015-Feb-20 09:29N 40°45' E 029°28'0 0.0
2015-Feb-20 08:05N 40°45' E 029°28'0 0.0
2015-Feb-20 03:17N 40°45' E 029°28'0 0.0
2015-Feb-19 17:04N 40°45' E 029°28'0 0.0
2015-Feb-19 16:28N 40°45' E 029°28'0 0.0
2015-Feb-19 15:07N 40°45' E 029°28'0 0.0
2015-Feb-19 14:25N 40°45' E 029°28'0 0.0
2015-Feb-19 10:25N 40°45' E 029°28'0 0.0
2015-Feb-19 01:05N 40°45' E 029°28'0 0.0
2015-Feb-18 20:23N 40°45' E 029°28'0 0.0
2015-Feb-18 19:23N 40°45' E 029°28'0 0.0
2015-Feb-18 17:29N 40°45' E 029°28'0 0.0
2015-Feb-18 16:11N 40°45' E 029°28'0 0.0
2015-Feb-18 15:29N 40°45' E 029°28'0 0.0
2015-Feb-18 12:08N 40°45' E 029°28'0 0.0
2015-Feb-18 11:32N 40°45' E 029°28'  

Dump ship's entire track history